Time;durP1;ratioP1;P1;durP2;ratioP2;P2;SDS_P1;SDS_P2;PMS_P1;PMS_P2;Temp;Humidity;BMP_temperature;BMP_pressure;BME280_temperature;BME280_humidity;BME280_pressure;Samples;Min_cycle;Max_cycle;Signal;HPM_P1;HPM_P2
2023/09/18 00:03:50;;;;;;;7.38;4.80;;;;;;;-145.48;100.00;64539.38;5882346;30;20048;-90
2023/09/18 00:07:51;;;;;;;6.95;5.03;;;;;;;-145.48;100.00;64539.38;5884706;30;20052;-90
2023/09/18 00:11:52;;;;;;;5.63;4.63;;;;;;;-145.48;100.00;64539.38;5875440;30;20428;-90
2023/09/18 00:15:55;;;;;;;7.70;5.07;;;;;;;-145.48;100.00;64539.38;5876423;30;20056;-90
2023/09/18 00:19:55;;;;;;;6.45;4.82;;;;;;;-145.48;100.00;64539.38;5879180;30;20056;-90
2023/09/18 00:23:56;;;;;;;6.25;4.93;;;;;;;-145.48;100.00;64539.38;5869078;30;20088;-90
2023/09/18 00:27:57;;;;;;;7.20;4.85;;;;;;;-145.48;100.00;64539.38;5873442;30;20190;-90
2023/09/18 00:31:57;;;;;;;8.63;5.15;;;;;;;-145.48;100.00;64539.38;5875339;30;20060;-89
2023/09/18 00:35:57;;;;;;;;;;;;;;;-145.48;100.00;64539.38;5871661;30;20126;-90
2023/09/18 00:39:58;;;;;;;8.82;4.65;;;;;;;-145.48;100.00;64539.38;5864154;30;19966;-90
2023/09/18 00:43:58;;;;;;;;;;;;;;;-145.48;100.00;64539.38;5878763;30;20687;-90
2023/09/18 00:47:59;;;;;;;6.25;5.10;;;;;;;-145.48;100.00;64539.38;5864050;30;19941;-90
2023/09/18 00:52:01;;;;;;;6.22;5.45;;;;;;;-145.48;100.00;64539.38;5870069;30;20479;-89
2023/09/18 00:56:03;;;;;;;8.15;5.43;;;;;;;-145.48;100.00;64539.38;5860392;30;20053;-90
2023/09/18 01:00:07;;;;;;;8.50;5.95;;;;;;;-145.48;100.00;64539.38;5865044;30;20102;-89
2023/09/18 01:04:09;;;;;;;9.32;5.50;;;;;;;-145.48;100.00;64539.38;5877557;30;20391;-89
2023/09/18 01:08:09;;;;;;;7.05;5.03;;;;;;;-145.48;100.00;64539.38;5879769;30;20059;-90
2023/09/18 01:12:19;;;;;;;7.13;5.32;;;;;;;-145.48;100.00;64539.38;5879060;30;20538;-89
2023/09/18 01:16:25;;;;;;;6.30;5.50;;;;;;;-145.48;100.00;64539.38;5864321;30;20049;-89
2023/09/18 01:20:35;;;;;;;6.68;5.15;;;;;;;-145.48;100.00;64539.38;5882892;30;20048;-90
2023/09/18 01:24:37;;;;;;;6.20;5.38;;;;;;;-145.48;100.00;64539.38;5878178;30;20040;-90
2023/09/18 01:28:37;;;;;;;9.23;5.63;;;;;;;-145.48;100.00;64539.38;5879061;30;20148;-89
2023/09/18 01:32:38;;;;;;;;;;;;;;;-145.48;100.00;64539.38;5874179;30;20073;-90
2023/09/18 01:36:39;;;;;;;8.60;5.95;;;;;;;-145.48;100.00;64539.38;5875792;30;19934;-90
2023/09/18 01:40:40;;;;;;;;;;;;;;;-145.48;100.00;64539.38;5860739;30;20726;-90
2023/09/18 01:44:40;;;;;;;7.15;5.15;;;;;;;-145.48;100.00;64539.38;5882356;30;19967;-90
2023/09/18 01:48:45;;;;;;;;;;;;;;;-145.48;100.00;64539.38;5875220;30;20469;-89
2023/09/18 01:52:46;;;;;;;6.65;5.05;;;;;;;-145.48;100.00;64539.38;5870201;30;20409;-89
2023/09/18 01:56:47;;;;;;;9.13;5.75;;;;;;;-145.48;100.00;64539.38;5879160;30;20139;-89
2023/09/18 02:00:47;;;;;;;10.02;5.75;;;;;;;-145.48;100.00;64539.38;5880148;30;20048;-90
2023/09/18 02:04:48;;;;;;;8.35;6.38;;;;;;;-145.48;100.00;64539.38;5880761;30;20154;-89
2023/09/18 02:09:12;;;;;;;6.68;5.47;;;;;;;-145.48;100.00;64539.38;5866281;30;20051;-90
2023/09/18 02:13:13;;;;;;;7.53;5.88;;;;;;;-145.48;100.00;64539.38;5884375;30;20559;-90
2023/09/18 02:17:15;;;;;;;;;;;;;;;-145.48;100.00;64539.38;5881777;30;20559;-90
2023/09/18 02:21:21;;;;;;;8.20;6.30;;;;;;;-145.48;100.00;64539.38;5885210;30;20101;-90
2023/09/18 02:25:23;;;;;;;9.07;5.85;;;;;;;-145.48;100.00;64539.38;5877139;30;20055;-90
2023/09/18 02:29:23;;;;;;;7.75;6.18;;;;;;;-145.48;100.00;64539.38;5868488;30;20539;-90
2023/09/18 02:33:23;;;;;;;9.73;6.13;;;;;;;-145.48;100.00;64539.38;5882911;30;20132;-90
2023/09/18 02:37:24;;;;;;;9.20;6.00;;;;;;;-145.48;100.00;64539.38;5879609;30;20064;-89
2023/09/18 02:41:25;;;;;;;6.70;6.00;;;;;;;-145.48;100.00;64539.38;5873509;30;20048;-89
2023/09/18 02:45:25;;;;;;;7.10;5.75;;;;;;;-145.48;100.00;64539.38;5871087;30;20052;-89
2023/09/18 02:49:25;;;;;;;8.02;6.10;;;;;;;-145.48;100.00;64539.38;5869471;30;20139;-89
2023/09/18 02:53:27;;;;;;;8.23;6.13;;;;;;;-145.48;100.00;64539.38;5854909;30;20052;-89
2023/09/18 02:57:30;;;;;;;7.88;5.68;;;;;;;-145.48;100.00;64539.38;5865471;30;20419;-89
2023/09/18 03:01:30;;;;;;;6.57;5.70;;;;;;;-145.48;100.00;64539.38;5868965;30;20056;-90
2023/09/18 03:05:31;;;;;;;;;;;;;;;-145.48;100.00;64539.38;5870331;30;20411;-89
2023/09/18 03:09:32;;;;;;;10.25;6.13;;;;;;;-145.48;100.00;64539.38;5875056;30;19940;-90
2023/09/18 03:13:32;;;;;;;;;;;;;;;-145.48;100.00;64539.38;5881309;30;20120;-89
2023/09/18 03:17:33;;;;;;;8.20;6.20;;;;;;;-145.48;100.00;64539.38;5864706;30;19965;-90
2023/09/18 03:21:35;;;;;;;7.20;5.78;;;;;;;-145.48;100.00;64539.38;5864235;30;20052;-89
2023/09/18 03:25:37;;;;;;;10.63;6.05;;;;;;;-145.48;100.00;64539.38;5879746;30;20059;-90
2023/09/18 03:29:52;;;;;;;6.30;5.45;;;;;;;-145.48;100.00;64539.38;5873548;30;20105;-90
2023/09/18 03:33:53;;;;;;;;;;;;;;;-145.48;100.00;64539.38;5877015;30;20101;-89
2023/09/18 03:37:54;;;;;;;6.60;5.88;;;;;;;-145.48;100.00;64539.38;5873761;30;19938;-90
2023/09/18 03:41:57;;;;;;;6.82;5.72;;;;;;;-145.48;100.00;64539.38;5880199;30;20052;-89
2023/09/18 03:46:05;;;;;;;9.45;5.95;;;;;;;-145.48;100.00;64539.38;5859537;30;20068;-90
2023/09/18 03:50:11;;;;;;;6.88;5.75;;;;;;;-145.48;100.00;64539.38;5865608;30;20053;-89
2023/09/18 03:54:12;;;;;;;7.40;5.40;;;;;;;-145.48;100.00;64539.38;5854629;30;20095;-90
2023/09/18 03:58:13;;;;;;;8.05;5.75;;;;;;;-145.48;100.00;64539.38;5852305;30;20528;-89
2023/09/18 04:02:14;;;;;;;9.73;5.72;;;;;;;-145.48;100.00;64539.38;5885157;30;20151;-90
2023/09/18 04:06:15;;;;;;;10.43;5.80;;;;;;;-145.48;100.00;64539.38;5874177;30;20261;-90
2023/09/18 04:10:22;;;;;;;6.72;5.28;;;;;;;-145.48;100.00;64539.38;5865863;30;20428;-90
2023/09/18 04:14:23;;;;;;;11.02;6.45;;;;;;;-145.48;100.00;64539.38;5864153;30;20052;-89
2023/09/18 04:18:23;;;;;;;7.18;5.32;;;;;;;-145.48;100.00;64539.38;5874215;30;20040;-89
2023/09/18 04:22:24;;;;;;;;;;;;;;;-145.48;100.00;64539.38;5872602;30;20131;-89
2023/09/18 04:26:29;;;;;;;8.00;4.88;;;;;;;-145.48;100.00;64539.38;5877036;30;20068;-89
2023/09/18 04:30:30;;;;;;;8.13;5.05;;;;;;;-145.48;100.00;64539.38;5861488;30;20067;-89
2023/09/18 04:34:32;;;;;;;6.95;5.20;;;;;;;-145.48;100.00;64539.38;5862656;30;20508;-89
2023/09/18 04:38:35;;;;;;;7.18;5.32;;;;;;;-145.48;100.00;64539.38;5861876;30;20057;-90
2023/09/18 04:42:36;;;;;;;6.28;4.95;;;;;;;-145.48;100.00;64539.38;5848544;30;20187;-89
2023/09/18 04:46:37;;;;;;;5.88;4.65;;;;;;;-145.48;100.00;64539.38;5850071;30;20564;-89
2023/09/18 04:50:38;;;;;;;9.18;5.32;;;;;;;-145.48;100.00;64539.38;5866913;30;20056;-89
2023/09/18 04:54:39;;;;;;;6.40;5.10;;;;;;;-145.48;100.00;64539.38;5860631;30;20421;-90
2023/09/18 04:58:40;;;;;;;5.95;5.30;;;;;;;-145.48;100.00;64539.38;5869383;30;20052;-90
2023/09/18 05:02:41;;;;;;;8.50;4.80;;;;;;;-145.48;100.00;64539.38;5863282;30;20513;-89
2023/09/18 05:06:42;;;;;;;7.03;5.50;;;;;;;-145.48;100.00;64539.38;5873971;30;20097;-89
2023/09/18 05:10:43;;;;;;;6.25;4.68;;;;;;;-145.48;100.00;64539.38;5878225;30;20518;-89
2023/09/18 05:14:44;;;;;;;7.38;5.28;;;;;;;-145.48;100.00;64539.38;5873545;30;20041;-89
2023/09/18 05:18:45;;;;;;;6.80;5.30;;;;;;;-145.48;100.00;64539.38;5869570;30;20055;-90
2023/09/18 05:22:46;;;;;;;6.00;5.40;;;;;;;-145.48;100.00;64539.38;5868148;30;20436;-90
2023/09/18 05:26:46;;;;;;;;;;;;;;;-145.48;100.00;64539.38;5880963;30;20123;-89
2023/09/18 05:30:47;;;;;;;5.43;4.70;;;;;;;-145.48;100.00;64539.38;5861106;30;19941;-90
2023/09/18 05:34:48;;;;;;;7.95;5.88;;;;;;;-145.48;100.00;64539.38;5879706;30;20496;-89
2023/09/18 05:38:49;;;;;;;7.13;5.50;;;;;;;-145.48;100.00;64539.38;5855780;30;20125;-89
2023/09/18 05:42:51;;;;;;;9.75;5.57;;;;;;;-145.48;100.00;64539.38;5874780;30;20411;-89
2023/09/18 05:46:51;;;;;;;;;;;;;;;-145.48;100.00;64539.38;5875239;30;20083;-89
2023/09/18 05:50:54;;;;;;;;;;;;;;;-145.48;100.00;64539.38;5871239;30;20394;-89
2023/09/18 05:54:54;;;;;;;7.07;5.50;;;;;;;-145.48;100.00;64539.38;5863863;30;19973;-90
2023/09/18 05:58:55;;;;;;;6.13;5.32;;;;;;;-145.48;100.00;64539.38;5877227;30;20052;-89
2023/09/18 06:02:56;;;;;;;6.38;5.20;;;;;;;-145.48;100.00;64539.38;5880376;30;20052;-90
2023/09/18 06:06:57;;;;;;;8.10;5.53;;;;;;;-145.48;100.00;64539.38;5879090;30;20533;-89
2023/09/18 06:10:58;;;;;;;7.50;4.63;;;;;;;-145.48;100.00;64539.38;5876671;30;20508;-90
2023/09/18 06:14:58;;;;;;;5.57;5.03;;;;;;;-145.48;100.00;64539.38;5867628;30;20131;-90
2023/09/18 06:19:00;;;;;;;5.47;4.78;;;;;;;-145.48;100.00;64539.38;5874047;30;20496;-90
2023/09/18 06:23:03;;;;;;;5.70;4.82;;;;;;;-145.48;100.00;64539.38;5878476;30;20060;-90
2023/09/18 06:27:04;;;;;;;6.05;4.70;;;;;;;-145.48;100.00;64539.38;5868809;30;20055;-90
2023/09/18 06:31:05;;;;;;;5.70;4.55;;;;;;;-145.48;100.00;64539.38;5868085;30;20041;-90
2023/09/18 06:35:06;;;;;;;6.38;4.95;;;;;;;-145.48;100.00;64539.38;5874494;30;20123;-90
2023/09/18 06:39:07;;;;;;;5.07;4.60;;;;;;;-145.48;100.00;64539.38;5876778;30;20499;-90
2023/09/18 06:43:07;;;;;;;5.30;4.40;;;;;;;-145.48;100.00;64539.38;5883803;30;20048;-90
2023/09/18 06:47:08;;;;;;;6.45;5.07;;;;;;;-145.48;100.00;64539.38;5876978;30;20493;-89
2023/09/18 06:51:08;;;;;;;;;;;;;;;-145.48;100.00;64539.38;5883124;30;20420;-90
2023/09/18 06:55:09;;;;;;;5.22;4.50;;;;;;;-145.48;100.00;64539.38;5884460;30;20053;-90
2023/09/18 06:59:09;;;;;;;;;;;;;;;-145.48;100.00;64539.38;5876785;30;20055;-90
2023/09/18 07:03:12;;;;;;;7.47;4.70;;;;;;;-145.48;100.00;64539.38;5878249;30;19930;-90
2023/09/18 07:07:15;;;;;;;5.30;4.63;;;;;;;-145.48;100.00;64539.38;5882031;30;20610;-90
2023/09/18 07:11:16;;;;;;;5.00;4.38;;;;;;;-145.48;100.00;64539.38;5870583;30;20048;-90
2023/09/18 07:15:17;;;;;;;6.25;4.55;;;;;;;-145.48;100.00;64539.38;5871031;30;20057;-90
2023/09/18 07:19:18;;;;;;;6.97;5.40;;;;;;;-145.48;100.00;64539.38;5884152;30;20130;-90
2023/09/18 07:23:19;;;;;;;5.70;4.82;;;;;;;-145.48;100.00;64539.38;5868445;30;20060;-90
2023/09/18 07:27:20;;;;;;;5.35;4.85;;;;;;;-145.48;100.00;64539.38;5872677;30;20077;-90
2023/09/18 07:31:21;;;;;;;6.28;4.72;;;;;;;-145.48;100.00;64539.38;5865531;30;20053;-90
2023/09/18 07:35:22;;;;;;;9.23;5.50;;;;;;;-145.48;100.00;64539.38;5877866;30;20040;-90
2023/09/18 07:39:23;;;;;;;6.47;4.70;;;;;;;-145.48;100.00;64539.38;5873871;30;20045;-90
2023/09/18 07:43:24;;;;;;;6.97;4.95;;;;;;;-145.48;100.00;64539.38;5862202;30;20747;-90
2023/09/18 07:47:25;;;;;;;5.07;4.55;;;;;;;-145.48;100.00;64539.38;5879906;30;20545;-90
2023/09/18 07:51:26;;;;;;;4.93;4.38;;;;;;;-145.48;100.00;64539.38;5872343;30;20045;-90
2023/09/18 07:55:26;;;;;;;;;;;;;;;-145.48;100.00;64539.38;5870644;30;20048;-90
2023/09/18 07:59:27;;;;;;;5.53;4.03;;;;;;;-145.48;100.00;64539.38;5870217;30;19931;-90
2023/09/18 08:03:28;;;;;;;7.57;4.32;;;;;;;-145.48;100.00;64539.38;5884296;30;20139;-90
2023/09/18 08:07:29;;;;;;;5.30;3.50;;;;;;;-145.48;100.00;64539.38;5880034;30;20052;-90
2023/09/18 08:11:36;;;;;;;6.07;4.10;;;;;;;-145.48;100.00;64539.38;5871016;30;20068;-90
2023/09/18 08:15:37;;;;;;;7.03;3.58;;;;;;;-145.48;100.00;64539.38;5873146;30;20048;-90
2023/09/18 08:19:39;;;;;;;6.93;3.35;;;;;;;-145.48;100.00;64539.38;5857103;30;20120;-90
2023/09/18 08:23:42;;;;;;;6.65;3.25;;;;;;;-145.48;100.00;64539.38;5872807;30;20106;-89
2023/09/18 08:27:44;;;;;;;10.98;3.80;;;;;;;-145.48;100.00;64539.38;5880612;30;20041;-89
2023/09/18 08:31:45;;;;;;;4.40;3.35;;;;;;;-145.48;100.00;64539.38;5855554;30;20053;-90
2023/09/18 08:35:46;;;;;;;;;;;;;;;-145.48;100.00;64539.38;5883925;30;20057;-89
2023/09/18 08:39:47;;;;;;;7.60;3.38;;;;;;;-145.48;100.00;64539.38;5874640;30;19938;-89
2023/09/18 08:43:50;;;;;;;6.43;3.50;;;;;;;-145.48;100.00;64539.38;5877916;30;20341;-89
2023/09/18 08:47:53;;;;;;;8.50;3.67;;;;;;;-145.48;100.00;64539.38;5875111;30;20044;-90
2023/09/18 08:51:55;;;;;;;11.13;3.80;;;;;;;-145.48;100.00;64539.38;5881159;30;20187;-90
2023/09/18 08:55:58;;;;;;;5.80;3.38;;;;;;;-145.48;100.00;64539.38;5872634;30;20057;-89
2023/09/18 09:00:02;;;;;;;4.90;3.00;;;;;;;-145.48;100.00;64539.38;5877060;30;20053;-89
2023/09/18 09:04:04;;;;;;;8.32;3.28;;;;;;;-145.48;100.00;64539.38;5883355;30;20063;-90
2023/09/18 09:08:04;;;;;;;10.20;3.60;;;;;;;-145.48;100.00;64539.38;5858149;30;20060;-89
2023/09/18 09:12:05;;;;;;;6.50;3.45;;;;;;;-145.48;100.00;64539.38;5882955;30;20193;-89
2023/09/18 09:16:10;;;;;;;7.95;3.30;;;;;;;-145.48;100.00;64539.38;5860276;30;20045;-89
2023/09/18 09:20:12;;;;;;;5.32;3.03;;;;;;;-145.48;100.00;64539.38;5874821;30;20072;-89
2023/09/18 09:24:18;;;;;;;25.92;5.03;;;;;;;-145.48;100.00;64539.38;5871623;30;20544;-89
2023/09/18 09:28:29;;;;;;;6.45;2.92;;;;;;;-145.48;100.00;64539.38;5875024;30;20142;-90
2023/09/18 09:32:32;;;;;;;12.80;3.60;;;;;;;-145.48;100.00;64539.38;5864541;30;20056;-89
2023/09/18 09:36:35;;;;;;;6.25;2.90;;;;;;;-145.48;100.00;64539.38;5872458;30;20041;-89
2023/09/18 09:40:47;;;;;;;10.95;3.10;;;;;;;-145.48;100.00;64539.38;5861945;30;20072;-89
2023/09/18 09:44:55;;;;;;;7.93;2.80;;;;;;;-145.48;100.00;64539.38;5869160;30;20086;-90
2023/09/18 09:49:05;;;;;;;8.23;3.35;;;;;;;-145.48;100.00;64539.38;5862013;30;20053;-91
2023/09/18 09:53:16;;;;;;;7.25;3.25;;;;;;;-145.48;100.00;64539.38;5871017;30;20455;-90
2023/09/18 09:57:17;;;;;;;10.10;3.00;;;;;;;-145.48;100.00;64539.38;5871863;30;20566;-89
2023/09/18 10:01:18;;;;;;;6.57;2.75;;;;;;;-145.48;100.00;64539.38;5881894;30;20056;-89
2023/09/18 10:05:19;;;;;;;11.10;3.45;;;;;;;-145.48;100.00;64539.38;5877246;30;20133;-89
2023/09/18 10:09:26;;;;;;;9.27;3.33;;;;;;;-145.48;100.00;64539.38;5873455;30;20382;-89
2023/09/18 10:13:46;;;;;;;11.35;3.28;;;;;;;-145.48;100.00;64539.38;5885986;30;20059;-90
2023/09/18 10:17:49;;;;;;;;;;;;;;;-145.48;100.00;64539.38;5879722;30;20058;-90
2023/09/18 10:22:06;;;;;;;6.85;2.88;;;;;;;-145.48;100.00;64539.38;5876304;30;19930;-89
2023/09/18 10:26:13;;;;;;;7.93;2.92;;;;;;;-145.48;100.00;64539.38;5874768;30;20058;-89
2023/09/18 10:30:14;;;;;;;6.18;2.65;;;;;;;-145.48;100.00;64539.38;5870770;30;20045;-89
2023/09/18 10:34:16;;;;;;;11.35;2.83;;;;;;;-145.48;100.00;64539.38;5872662;30;20052;-89
2023/09/18 10:38:18;;;;;;;5.30;2.78;;;;;;;-145.48;100.00;64539.38;5880285;30;20044;-89
2023/09/18 10:42:25;;;;;;;10.10;3.00;;;;;;;-145.48;100.00;64539.38;5881981;30;20519;-89
2023/09/18 10:46:26;;;;;;;6.65;2.70;;;;;;;-145.48;100.00;64539.38;5881619;30;20415;-89
2023/09/18 10:50:27;;;;;;;6.28;2.70;;;;;;;-145.48;100.00;64539.38;5882937;30;20049;-89
2023/09/18 10:54:29;;;;;;;8.52;3.22;;;;;;;-145.48;100.00;64539.38;5876807;30;20055;-89
2023/09/18 10:58:35;;;;;;;9.05;2.60;;;;;;;-145.48;100.00;64539.38;5875656;30;20137;-89
2023/09/18 11:02:36;;;;;;;8.27;2.70;;;;;;;-145.48;100.00;64539.38;5882784;30;20553;-90
2023/09/18 11:06:56;;;;;;;4.68;2.58;;;;;;;-145.48;100.00;64539.38;5871736;30;20060;-89
2023/09/18 11:11:09;;;;;;;4.83;2.50;;;;;;;-145.48;100.00;64539.38;5871194;30;20071;-89
2023/09/18 11:15:25;;;;;;;6.75;2.50;;;;;;;-145.48;100.00;64539.38;5877028;30;20045;-89
2023/09/18 11:19:31;;;;;;;8.68;3.92;;;;;;;-145.48;100.00;64539.38;5874341;30;20048;-89
2023/09/18 11:23:42;;;;;;;6.20;2.63;;;;;;;-145.48;100.00;64539.38;5882477;30;20292;-89
2023/09/18 11:27:55;;;;;;;6.72;2.35;;;;;;;-145.48;100.00;64539.38;5862542;30;20055;-89
2023/09/18 11:31:57;;;;;;;4.38;2.47;;;;;;;-145.48;100.00;64539.38;5872683;30;20060;-89
2023/09/18 11:36:14;;;;;;;4.43;2.30;;;;;;;-145.48;100.00;64539.38;5871004;30;20505;-89
2023/09/18 11:40:38;;;;;;;7.90;2.55;;;;;;;-145.48;100.00;64539.38;5879865;30;20327;-89
2023/09/18 11:44:45;;;;;;;5.97;2.20;;;;;;;-145.48;100.00;64539.38;5861498;30;20718;-90
2023/09/18 11:48:51;;;;;;;4.20;1.90;;;;;;;-145.48;100.00;64539.38;5878362;30;20072;-89
2023/09/18 11:52:53;;;;;;;4.70;2.10;;;;;;;-145.48;100.00;64539.38;5873810;30;20453;-89
2023/09/18 11:56:54;;;;;;;7.40;2.17;;;;;;;-145.48;100.00;64539.38;5872166;30;20650;-89
2023/09/18 12:00:55;;;;;;;4.95;2.17;;;;;;;-145.48;100.00;64539.38;5880749;30;20063;-89
2023/09/18 12:05:13;;;;;;;5.45;2.10;;;;;;;-145.48;100.00;64539.38;5876359;30;20044;-89
2023/09/18 12:09:14;;;;;;;1.88;1.58;;;;;;;-145.48;100.00;64539.38;5873044;30;20115;-89
2023/09/18 12:13:15;;;;;;;3.88;1.83;;;;;;;-145.48;100.00;64539.38;5874712;30;20045;-89
2023/09/18 12:17:15;;;;;;;5.82;1.83;;;;;;;-145.48;100.00;64539.38;5882089;30;20181;-89
2023/09/18 12:21:17;;;;;;;3.50;1.65;;;;;;;-145.48;100.00;64539.38;5877510;30;20056;-89
2023/09/18 12:25:24;;;;;;;3.17;1.30;;;;;;;-145.48;100.00;64539.38;5863634;30;20238;-89
2023/09/18 12:29:25;;;;;;;4.32;1.65;;;;;;;-145.48;100.00;64539.38;5864669;30;20056;-89
2023/09/18 12:33:27;;;;;;;5.07;1.27;;;;;;;-145.48;100.00;64539.38;5873780;30;20059;-89
2023/09/18 12:37:29;;;;;;;3.97;1.50;;;;;;;-145.48;100.00;64539.38;5863713;30;20052;-89
2023/09/18 12:41:31;;;;;;;2.22;1.10;;;;;;;-145.48;100.00;64539.38;5869285;30;20056;-89
2023/09/18 12:45:34;;;;;;;4.07;1.00;;;;;;;-145.48;100.00;64539.38;5877451;30;20060;-89
2023/09/18 12:49:39;;;;;;;2.45;1.10;;;;;;;-145.48;100.00;64539.38;5873789;30;20052;-89
2023/09/18 12:53:40;;;;;;;3.67;1.20;;;;;;;-145.48;100.00;64539.38;5878914;30;20507;-89
2023/09/18 12:57:42;;;;;;;4.55;1.30;;;;;;;-145.48;100.00;64539.38;5873797;30;20049;-89
2023/09/18 13:01:48;;;;;;;1.55;0.95;;;;;;;-145.48;100.00;64539.38;5869801;30;20541;-90
2023/09/18 13:05:54;;;;;;;3.35;1.50;;;;;;;-145.48;100.00;64539.38;5874507;30;20079;-90
2023/09/18 13:10:14;;;;;;;2.22;1.25;;;;;;;-145.48;100.00;64539.38;5863778;30;20044;-90
2023/09/18 13:14:19;;;;;;;2.17;1.13;;;;;;;-145.48;100.00;64539.38;5882555;30;20051;-89
2023/09/18 13:18:19;;;;;;;2.83;1.33;;;;;;;-145.48;100.00;64539.38;5878815;30;20048;-90
2023/09/18 13:22:29;;;;;;;2.30;1.30;;;;;;;-145.48;100.00;64539.38;5862340;30;20429;-90
2023/09/18 13:26:30;;;;;;;3.40;1.15;;;;;;;-145.48;100.00;64539.38;5870150;30;20072;-90
2023/09/18 13:30:33;;;;;;;2.50;1.40;;;;;;;-145.48;100.00;64539.38;5875488;30;20182;-90
2023/09/18 13:34:40;;;;;;;2.45;1.50;;;;;;;-145.48;100.00;64539.38;5850185;30;20090;-90
2023/09/18 13:38:43;;;;;;;3.05;1.73;;;;;;;-145.48;100.00;64539.38;5874012;30;20068;-90
2023/09/18 13:42:44;;;;;;;2.63;1.30;;;;;;;-145.48;100.00;64539.38;5874753;30;20044;-90
2023/09/18 13:46:44;;;;;;;2.25;1.02;;;;;;;-145.48;100.00;64539.38;5867866;30;20053;-89
2023/09/18 13:50:46;;;;;;;4.10;1.63;;;;;;;-145.48;100.00;64539.38;5870953;30;20603;-89
2023/09/18 13:54:50;;;;;;;4.55;1.90;;;;;;;-145.48;100.00;64539.38;5872204;30;20095;-89
2023/09/18 13:58:51;;;;;;;4.80;1.70;;;;;;;-145.48;100.00;64539.38;5881920;30;20052;-89
2023/09/18 14:02:52;;;;;;;2.35;1.23;;;;;;;-145.48;100.00;64539.38;5873661;30;20048;-90
2023/09/18 14:06:53;;;;;;;3.88;1.50;;;;;;;-145.48;100.00;64539.38;5874672;30;20538;-90
2023/09/18 14:10:53;;;;;;;3.17;1.65;;;;;;;-145.48;100.00;64539.38;5847744;30;20065;-90
2023/09/18 14:14:53;;;;;;;5.28;1.90;;;;;;;-145.48;100.00;64539.38;5877937;30;20063;-90
2023/09/18 14:18:54;;;;;;;4.25;1.55;;;;;;;-145.48;100.00;64539.38;5871157;30;20049;-90
2023/09/18 14:22:55;;;;;;;5.65;2.35;;;;;;;-145.48;100.00;64539.38;5864163;30;20045;-90
2023/09/18 14:26:55;;;;;;;5.50;2.00;;;;;;;-145.48;100.00;64539.38;5851907;30;20051;-90
2023/09/18 14:30:56;;;;;;;7.38;2.20;;;;;;;-145.48;100.00;64539.38;5866079;30;20041;-90
2023/09/18 14:34:58;;;;;;;6.40;2.15;;;;;;;-145.48;100.00;64539.38;5866103;30;20160;-90
2023/09/18 14:39:00;;;;;;;2.63;1.50;;;;;;;-145.48;100.00;64539.38;5871152;30;20161;-90
2023/09/18 14:43:01;;;;;;;5.75;1.77;;;;;;;-145.48;100.00;64539.38;5863957;30;20131;-90
2023/09/18 14:47:01;;;;;;;4.22;1.63;;;;;;;-145.48;100.00;64539.38;5871569;30;20045;-90
2023/09/18 14:51:03;;;;;;;3.42;1.45;;;;;;;-145.48;100.00;64539.38;5877553;30;20045;-90
2023/09/18 14:55:05;;;;;;;4.47;1.85;;;;;;;-145.48;100.00;64539.38;5873831;30;20048;-90
2023/09/18 14:59:07;;;;;;;7.78;1.83;;;;;;;-145.48;100.00;64539.38;5857289;30;20056;-90
2023/09/18 15:03:08;;;;;;;4.22;1.50;;;;;;;-145.48;100.00;64539.38;5875575;30;20053;-90
2023/09/18 15:07:10;;;;;;;3.50;1.30;;;;;;;-145.48;100.00;64539.38;5878946;30;20049;-90
2023/09/18 15:11:11;;;;;;;3.50;1.70;;;;;;;-145.48;100.00;64539.38;5874422;30;20436;-90
2023/09/18 15:15:11;;;;;;;2.78;1.70;;;;;;;-145.48;100.00;64539.38;5882353;30;20040;-90
2023/09/18 15:19:14;;;;;;;3.92;1.40;;;;;;;-145.48;100.00;64539.38;5857880;30;20179;-89
2023/09/18 15:23:16;;;;;;;2.58;1.50;;;;;;;-145.48;100.00;64539.38;5860747;30;20133;-90
2023/09/18 15:27:17;;;;;;;2.83;1.58;;;;;;;-145.48;100.00;64539.38;5862719;30;20055;-89
2023/09/18 15:31:18;;;;;;;2.78;1.30;;;;;;;-145.48;100.00;64539.38;5856787;30;20130;-90
2023/09/18 15:35:19;;;;;;;4.95;1.63;;;;;;;-145.48;100.00;64539.38;5878282;30;20079;-90
2023/09/18 15:39:20;;;;;;;2.92;2.38;;;;;;;-145.48;100.00;64539.38;5867194;30;20041;-90
2023/09/18 15:43:20;;;;;;;2.25;1.17;;;;;;;-145.48;100.00;64539.38;5875086;30;20551;-90
2023/09/18 15:47:20;;;;;;;4.15;1.33;;;;;;;-145.48;100.00;64539.38;5879397;30;20048;-90
2023/09/18 15:51:21;;;;;;;1.90;1.40;;;;;;;-145.48;100.00;64539.38;5869292;30;20272;-91
2023/09/18 15:55:21;;;;;;;2.13;1.35;;;;;;;-145.48;100.00;64539.38;5879183;30;20048;-90
2023/09/18 15:59:25;;;;;;;2.58;1.33;;;;;;;-145.48;100.00;64539.38;5879217;30;20097;-91
2023/09/18 16:03:25;;;;;;;3.42;1.38;;;;;;;-145.48;100.00;64539.38;5874735;30;20053;-90
2023/09/18 16:07:26;;;;;;;5.90;1.30;;;;;;;-145.48;100.00;64539.38;5878674;30;20496;-90
2023/09/18 16:11:27;;;;;;;3.42;1.30;;;;;;;-145.48;100.00;64539.38;5866980;30;20059;-90
2023/09/18 16:15:28;;;;;;;2.22;1.40;;;;;;;-145.48;100.00;64539.38;5884643;30;20178;-90
2023/09/18 16:19:28;;;;;;;5.15;1.48;;;;;;;-145.48;100.00;64539.38;5871324;30;20561;-90
2023/09/18 16:23:29;;;;;;;3.63;1.50;;;;;;;-145.48;100.00;64539.38;5881618;30;20533;-90
2023/09/18 16:27:30;;;;;;;3.65;1.58;;;;;;;-145.48;100.00;64539.38;5871271;30;20151;-90
2023/09/18 16:31:31;;;;;;;1.55;1.27;;;;;;;-145.48;100.00;64539.38;5869712;30;20082;-90
2023/09/18 16:35:31;;;;;;;4.65;1.20;;;;;;;-145.48;100.00;64539.38;5880741;30;20052;-90
2023/09/18 16:39:32;;;;;;;5.22;1.45;;;;;;;-145.48;100.00;64539.38;5870142;30;20049;-90
2023/09/18 16:43:33;;;;;;;1.70;1.30;;;;;;;-145.48;100.00;64539.38;5878192;30;20059;-90
2023/09/18 16:47:36;;;;;;;2.42;1.25;;;;;;;-145.48;100.00;64539.38;5869126;30;20086;-90
2023/09/18 16:51:36;;;;;;;2.45;1.33;;;;;;;-145.48;100.00;64539.38;5875640;30;20051;-90
2023/09/18 16:55:37;;;;;;;3.35;1.67;;;;;;;-145.48;100.00;64539.38;5871583;30;20420;-90
2023/09/18 16:59:38;;;;;;;3.38;1.40;;;;;;;-145.48;100.00;64539.38;5866589;30;20044;-90
2023/09/18 17:03:44;;;;;;;2.05;1.30;;;;;;;-145.48;100.00;64539.38;5872145;30;20056;-90
2023/09/18 17:07:47;;;;;;;1.40;1.10;;;;;;;-145.48;100.00;64539.38;5855923;30;20053;-90
2023/09/18 17:11:48;;;;;;;3.42;1.67;;;;;;;-145.48;100.00;64539.38;5879706;30;20390;-90
2023/09/18 17:15:49;;;;;;;;;;;;;;;-145.48;100.00;64539.38;5877173;30;20051;-89
2023/09/18 17:19:50;;;;;;;2.75;1.25;;;;;;;-145.48;100.00;64539.38;5870404;30;19930;-90
2023/09/18 17:23:50;;;;;;;3.72;1.38;;;;;;;-145.48;100.00;64539.38;5865019;30;20393;-90
2023/09/18 17:27:51;;;;;;;3.22;1.50;;;;;;;-145.48;100.00;64539.38;5879805;30;20135;-90
2023/09/18 17:31:52;;;;;;;3.83;1.30;;;;;;;-145.48;100.00;64539.38;5871221;30;20052;-89
2023/09/18 17:35:52;;;;;;;;;;;;;;;-145.48;100.00;64539.38;5881248;30;20078;-90
2023/09/18 17:39:52;;;;;;;2.35;1.55;;;;;;;-145.48;100.00;64539.38;5878579;30;19965;-89
2023/09/18 17:43:53;;;;;;;2.83;1.50;;;;;;;-145.48;100.00;64539.38;5882415;30;20048;-90
2023/09/18 17:47:53;;;;;;;;;;;;;;;-145.48;100.00;64539.38;5873213;30;20055;-90
2023/09/18 17:51:54;;;;;;;4.55;1.92;;;;;;;-145.48;100.00;64539.38;5872808;30;19930;-89
2023/09/18 17:55:54;;;;;;;;;;;;;;;-145.48;100.00;64539.38;5873430;30;20411;-90
2023/09/18 17:59:57;;;;;;;1.40;1.30;;;;;;;-145.48;100.00;64539.38;5874363;30;19934;-90
2023/09/18 18:03:57;;;;;;;2.65;1.65;;;;;;;-145.48;100.00;64539.38;5879333;30;20048;-90
2023/09/18 18:07:59;;;;;;;2.67;1.67;;;;;;;-145.48;100.00;64539.38;5875160;30;20056;-90
2023/09/18 18:11:59;;;;;;;;;;;;;;;-145.48;100.00;64539.38;5882157;30;20064;-90
2023/09/18 18:16:00;;;;;;;4.60;2.03;;;;;;;-145.48;100.00;64539.38;5867502;30;19937;-90
2023/09/18 18:20:01;;;;;;;;;;;;;;;-145.48;100.00;64539.38;5864406;30;20078;-90
2023/09/18 18:24:03;;;;;;;2.58;1.48;;;;;;;-145.48;100.00;64539.38;5864728;30;19941;-90
2023/09/18 18:28:04;;;;;;;6.68;2.15;;;;;;;-145.48;100.00;64539.38;5873031;30;20044;-90
2023/09/18 18:32:04;;;;;;;;;;;;;;;-145.48;100.00;64539.38;5871588;30;20082;-90